Allerton, IL (61810)

11:08 AM CST on February 26, 2017 (GMT -0600)
Walker Farms | | Change Station

Elev 211 ft 39.91 °N, 88.00 °W | Updated 14 seconds ago

Clear
Clear
45.5 °F
Feels Like 42 °F
N
6.8
Wind Variable Wind from ESE

Today
High -- | Low -- °F
--% Chance of Precip.
Yesterday
High -- | Low -- °F
Precip. -- in
Pressure 30.12 in
Visibility 10.0 miles
Clouds Clear
Windchill 42 °F
Dew Point 19 °F
Humidity 34%
Rainfall 0.81 in
Snow Depth Not available.
6:29 AM 5:40 PM
New Moon, 0% visible
METAR KCMI 261653Z 20022G28KT 10SM CLR 06/M10 A3010 RMK AO2 PK WND 19028/1649 SLP200 T00611100
Pressure 30.12 in
Visibility 10.0 miles
Clouds Clear
Windchill 42 °F
Dew Point 19 °F
Humidity 34%
Rainfall 0.81 in
Snow Depth Not available.
6:29 AM 5:40 PM
New Moon, 0% visible
METAR KCMI 261653Z 20022G28KT 10SM CLR 06/M10 A3010 RMK AO2 PK WND 19028/1649 SLP200 T00611100

Get Your Daily Forecast Email!

Thanks for signing up!

Be on the lookout for a verification email in your inbox.

You'll start receiving the daily forecast at 8 AM.

×

10-Day Weather Forecast

Almanac

Astronomy

Feb. 26, 2017 Rise Set
Actual Time
Civil Twilight
Nautical Twilight
Astronomical Twilight
Moon
Length of Visible Light
Length of Day
Tomorrow will be .
, % of the Moon is Illuminated

Today's Extremes

State Highs State Lows

Community

WunderPhotos

Upload Photos

1,962,540 photos uploaded!

WunderBlog® & News

Nearby

Air Quality

  Air Quality AQ Index Pollutant
Not available.

Snow Depth

Station Depth Elevation

Earthquake Activity

City Distance Mag. Time & Date
Minimum magnitude displayed is 2.5.

Coastal Water Temperatures

Place Temperature

Stations

Nearby Weather Stations

Station Location Temp. Windchill Dew Point Humidity Wind Precip. Elev Updated Type
                   

Watches & Warnings

There are currently no watches in effect.